createdAt,value
2023-05-17T00:00:56.698Z,1016.81
2023-05-17T00:01:56.753Z,1016.83
2023-05-17T00:02:56.812Z,1016.79
2023-05-17T00:03:56.792Z,1016.81
2023-05-17T00:04:56.845Z,1016.80
2023-05-17T00:05:56.828Z,1016.77
2023-05-17T00:06:56.826Z,1016.81
2023-05-17T00:07:56.842Z,1016.82
2023-05-17T00:08:56.873Z,1016.82
2023-05-17T00:09:56.894Z,1016.82
2023-05-17T00:10:56.912Z,1016.80
2023-05-17T00:11:56.937Z,1016.79
2023-05-17T00:12:57.020Z,1016.79
2023-05-17T00:13:56.990Z,1016.77
2023-05-17T00:14:56.994Z,1016.77
2023-05-17T00:15:57.019Z,1016.77
2023-05-17T00:16:57.039Z,1016.76
2023-05-17T00:17:57.089Z,1016.77
2023-05-17T00:18:57.196Z,1016.76
2023-05-17T00:19:57.127Z,1016.81
2023-05-17T00:20:57.122Z,1016.78
2023-05-17T00:21:57.144Z,1016.77
2023-05-17T00:22:57.170Z,1016.77
2023-05-17T00:23:57.196Z,1016.71
2023-05-17T00:24:57.210Z,1016.75
2023-05-17T00:25:57.226Z,1016.74
2023-05-17T00:26:57.276Z,1016.75
2023-05-17T00:27:57.278Z,1016.76
2023-05-17T00:28:57.388Z,1016.74
2023-05-17T00:29:57.327Z,1016.73
2023-05-17T00:30:57.359Z,1016.71
2023-05-17T00:31:57.363Z,1016.69
2023-05-17T00:32:57.425Z,1016.67
2023-05-17T00:33:57.405Z,1016.67
2023-05-17T00:34:57.488Z,1016.59
2023-05-17T00:35:57.454Z,1016.62
2023-05-17T00:36:57.473Z,1016.61
2023-05-17T00:37:57.492Z,1016.68
2023-05-17T00:38:57.507Z,1016.70
2023-05-17T00:39:57.543Z,1016.69
2023-05-17T00:40:57.594Z,1016.69
2023-05-17T00:41:57.574Z,1016.66
2023-05-17T00:42:57.603Z,1016.69
2023-05-17T00:43:57.626Z,1016.65
2023-05-17T00:44:57.882Z,1016.70
2023-05-17T00:45:57.662Z,1016.76
2023-05-17T00:46:57.686Z,1016.72
2023-05-17T00:47:57.784Z,1016.69
2023-05-17T00:48:57.724Z,1016.68
2023-05-17T00:49:57.748Z,1016.67
2023-05-17T00:50:57.771Z,1016.66
2023-05-17T00:51:57.786Z,1016.65
2023-05-17T00:52:57.809Z,1016.61
2023-05-17T00:53:57.830Z,1016.61
2023-05-17T00:54:57.858Z,1016.61
2023-05-17T00:55:57.874Z,1016.57
2023-05-17T00:56:57.893Z,1016.64
2023-05-17T00:57:57.923Z,1016.58
2023-05-17T00:58:57.937Z,1016.58
2023-05-17T00:59:57.976Z,1016.64
2023-05-17T01:00:58.110Z,1016.69
2023-05-17T01:01:58.005Z,1016.73
2023-05-17T01:02:58.140Z,1016.73
2023-05-17T01:03:58.134Z,1016.74
2023-05-17T01:04:58.209Z,1016.72
2023-05-17T01:05:58.089Z,1016.67
2023-05-17T01:06:58.123Z,1016.66
2023-05-17T01:07:58.133Z,1016.70
2023-05-17T01:08:58.156Z,1016.69
2023-05-17T01:09:58.170Z,1016.70
2023-05-17T01:10:58.226Z,1016.74
2023-05-17T01:11:58.218Z,1016.71
2023-05-17T01:12:58.239Z,1016.74
2023-05-17T01:13:58.254Z,1016.71
2023-05-17T01:14:58.286Z,1016.75
2023-05-17T01:15:58.325Z,1016.75
2023-05-17T01:16:58.398Z,1016.76
2023-05-17T01:17:58.402Z,1016.79
2023-05-17T01:18:58.523Z,1016.75
2023-05-17T01:19:58.563Z,1016.73
2023-05-17T01:20:58.405Z,1016.76
2023-05-17T01:21:58.425Z,1016.76
2023-05-17T01:22:58.444Z,1016.74
2023-05-17T01:23:58.468Z,1016.75
2023-05-17T01:24:58.489Z,1016.77
2023-05-17T01:25:58.506Z,1016.73
2023-05-17T01:26:58.532Z,1016.75
2023-05-17T01:27:58.548Z,1016.75
2023-05-17T01:28:58.604Z,1016.75
2023-05-17T01:29:58.597Z,1016.75
2023-05-17T01:30:58.623Z,1016.76
2023-05-17T01:31:58.637Z,1016.74
2023-05-17T01:32:58.854Z,1016.76
2023-05-17T01:33:58.816Z,1016.80
2023-05-17T01:34:58.696Z,1016.78
2023-05-17T01:35:58.716Z,1016.77
2023-05-17T01:36:58.744Z,1016.81
2023-05-17T01:37:58.795Z,1016.81
2023-05-17T01:38:58.781Z,1016.82
2023-05-17T01:39:58.805Z,1016.83
2023-05-17T01:40:58.828Z,1016.83
2023-05-17T01:41:58.843Z,1016.84
2023-05-17T01:42:58.871Z,1016.87
2023-05-17T01:43:58.905Z,1016.86
2023-05-17T01:44:58.936Z,1016.87
2023-05-17T01:45:58.947Z,1016.91
2023-05-17T01:46:58.946Z,1016.91
2023-05-17T01:47:59.017Z,1016.92
2023-05-17T01:48:59.188Z,1016.92
2023-05-17T01:49:59.015Z,1016.93
2023-05-17T01:50:59.034Z,1017.01
2023-05-17T01:51:59.069Z,1016.97
2023-05-17T01:52:59.081Z,1017.02
2023-05-17T01:53:59.093Z,1017.00
2023-05-17T01:54:59.127Z,1017.04
2023-05-17T01:55:59.149Z,1017.03
2023-05-17T01:56:59.177Z,1017.05
2023-05-17T01:57:59.179Z,1017.09
2023-05-17T01:58:59.236Z,1017.10
2023-05-17T01:59:59.223Z,1017.13
2023-05-17T02:00:59.243Z,1017.09
2023-05-17T02:01:59.266Z,1017.14
2023-05-17T02:02:59.324Z,1017.13
2023-05-17T02:03:59.333Z,1017.11
2023-05-17T02:04:59.416Z,1017.14
2023-05-17T02:05:59.351Z,1017.17
2023-05-17T02:06:59.377Z,1017.19
2023-05-17T02:07:59.400Z,1017.18
2023-05-17T02:08:59.410Z,1017.15
2023-05-17T02:09:59.437Z,1017.20
2023-05-17T02:10:59.455Z,1017.19
2023-05-17T02:11:59.474Z,1017.16
2023-05-17T02:12:59.497Z,1017.15
2023-05-17T02:13:59.518Z,1017.14
2023-05-17T02:14:59.542Z,1017.17
2023-05-17T02:15:59.563Z,1017.16
2023-05-17T02:16:59.586Z,1017.21
2023-05-17T02:17:59.688Z,1017.17
2023-05-17T02:18:59.729Z,1017.17
2023-05-17T02:19:59.647Z,1017.18
2023-05-17T02:20:59.756Z,1017.22
2023-05-17T02:21:59.691Z,1017.21
2023-05-17T02:22:59.720Z,1017.22
2023-05-17T02:23:59.739Z,1017.29
2023-05-17T02:24:59.780Z,1017.22
2023-05-17T02:25:59.771Z,1017.25
2023-05-17T02:26:59.796Z,1017.23
2023-05-17T02:27:59.825Z,1017.22
2023-05-17T02:28:59.859Z,1017.29
2023-05-17T02:29:59.866Z,1017.28
2023-05-17T02:30:59.891Z,1017.29
2023-05-17T02:31:59.917Z,1017.32
2023-05-17T02:32:59.982Z,1017.31
2023-05-17T02:34:00.066Z,1017.32
2023-05-17T02:34:59.967Z,1017.39
2023-05-17T02:35:59.985Z,1017.35
2023-05-17T02:37:00.076Z,1017.35
2023-05-17T02:38:00.030Z,1017.38
2023-05-17T02:39:00.054Z,1017.37
2023-05-17T02:40:00.080Z,1017.37
2023-05-17T02:41:00.102Z,1017.40
2023-05-17T02:42:00.141Z,1017.40
2023-05-17T02:43:00.141Z,1017.43
2023-05-17T02:44:00.164Z,1017.42
2023-05-17T02:45:00.179Z,1017.39
2023-05-17T02:46:00.214Z,1017.42
2023-05-17T02:47:00.254Z,1017.45
2023-05-17T02:48:00.256Z,1017.47
2023-05-17T02:49:00.255Z,1017.43
2023-05-17T02:50:00.281Z,1017.46
2023-05-17T02:51:00.293Z,1017.48
2023-05-17T02:52:00.314Z,1017.49
2023-05-17T02:53:00.347Z,1017.50
2023-05-17T02:54:00.359Z,1017.50
2023-05-17T02:55:00.413Z,1017.49
2023-05-17T02:56:00.423Z,1017.49
2023-05-17T02:57:00.421Z,1017.52
2023-05-17T02:58:00.469Z,1017.54
2023-05-17T02:59:00.466Z,1017.51
2023-05-17T03:00:00.495Z,1017.53
2023-05-17T03:01:00.520Z,1017.52
2023-05-17T03:02:00.528Z,1017.50
2023-05-17T03:03:00.626Z,1017.50
2023-05-17T03:04:00.814Z,1017.50
2023-05-17T03:05:00.593Z,1017.51
2023-05-17T03:06:00.624Z,1017.52
2023-05-17T03:07:00.639Z,1017.52
2023-05-17T03:08:00.667Z,1017.50
2023-05-17T03:09:00.760Z,1017.51
2023-05-17T03:10:00.694Z,1017.48
2023-05-17T03:11:00.722Z,1017.49
2023-05-17T03:12:00.749Z,1017.51
2023-05-17T03:13:00.758Z,1017.52
2023-05-17T03:14:00.776Z,1017.52
2023-05-17T03:15:00.808Z,1017.54
2023-05-17T03:16:00.829Z,1017.55
2023-05-17T03:17:00.836Z,1017.58
2023-05-17T03:18:00.940Z,1017.55
2023-05-17T03:19:01.046Z,1017.60
2023-05-17T03:20:00.912Z,1017.60
2023-05-17T03:21:00.921Z,1017.62
2023-05-17T03:22:00.948Z,1017.58
2023-05-17T03:23:00.958Z,1017.62
2023-05-17T03:24:01.009Z,1017.61
2023-05-17T03:25:01.245Z,1017.62
2023-05-17T03:26:01.028Z,1017.62
2023-05-17T03:27:01.049Z,1017.61
2023-05-17T03:28:01.072Z,1017.63
2023-05-17T03:29:01.092Z,1017.66
2023-05-17T03:30:01.112Z,1017.64
2023-05-17T03:31:01.192Z,1017.66
2023-05-17T03:32:01.147Z,1017.68
2023-05-17T03:33:01.231Z,1017.71
2023-05-17T03:34:01.290Z,1017.73
2023-05-17T03:35:01.231Z,1017.78
2023-05-17T03:36:01.227Z,1017.76
2023-05-17T03:37:01.249Z,1017.81
2023-05-17T03:38:01.278Z,1017.75
2023-05-17T03:39:01.303Z,1017.80
2023-05-17T03:40:01.322Z,1017.78
2023-05-17T03:41:01.408Z,1017.79
2023-05-17T03:42:01.352Z,1017.80
2023-05-17T03:43:01.405Z,1017.79
2023-05-17T03:44:01.401Z,1017.83
2023-05-17T03:45:01.416Z,1017.85
2023-05-17T03:46:01.453Z,1017.84
2023-05-17T03:47:01.458Z,1017.86
2023-05-17T03:48:01.491Z,1017.88
2023-05-17T03:49:01.544Z,1017.89
2023-05-17T03:50:01.517Z,1017.85
2023-05-17T03:51:01.537Z,1017.90
2023-05-17T03:52:01.564Z,1017.90
2023-05-17T03:53:01.579Z,1017.95
2023-05-17T03:54:01.627Z,1017.91
2023-05-17T03:55:01.654Z,1017.95
2023-05-17T03:56:01.640Z,1017.96
2023-05-17T03:57:01.735Z,1018.00
2023-05-17T03:58:01.694Z,1018.02
2023-05-17T03:59:01.774Z,1018.01
2023-05-17T04:00:01.760Z,1018.01
2023-05-17T04:01:01.749Z,1017.99
2023-05-17T04:02:01.766Z,1018.00
2023-05-17T04:03:01.833Z,1017.98
2023-05-17T04:04:01.830Z,1017.98
2023-05-17T04:05:01.892Z,1017.99
2023-05-17T04:06:01.850Z,1018.03
2023-05-17T04:07:01.872Z,1018.03
2023-05-17T04:08:01.893Z,1018.04
2023-05-17T04:09:01.911Z,1018.07
2023-05-17T04:10:01.949Z,1018.11
2023-05-17T04:11:01.967Z,1018.10
2023-05-17T04:12:01.989Z,1018.11
2023-05-17T04:13:02.127Z,1018.12
2023-05-17T04:14:02.024Z,1018.12
2023-05-17T04:15:02.040Z,1018.10
2023-05-17T04:16:02.064Z,1018.09
2023-05-17T04:17:02.122Z,1018.07
2023-05-17T04:18:02.157Z,1018.07
2023-05-17T04:19:02.228Z,1018.11
2023-05-17T04:20:02.272Z,1018.13
2023-05-17T04:21:02.227Z,1018.12
2023-05-17T04:22:02.209Z,1018.13
2023-05-17T04:23:02.227Z,1018.16
2023-05-17T04:24:02.237Z,1018.20
2023-05-17T04:25:02.263Z,1018.22
2023-05-17T04:26:02.289Z,1018.24
2023-05-17T04:27:03.684Z,1018.26
2023-05-17T04:28:02.339Z,1018.22
2023-05-17T04:29:02.386Z,1018.28
2023-05-17T04:30:02.386Z,1018.27
2023-05-17T04:31:02.444Z,1018.27
2023-05-17T04:32:02.424Z,1018.30
2023-05-17T04:33:02.511Z,1018.30
2023-05-17T04:34:02.576Z,1018.32
2023-05-17T04:35:02.482Z,1018.34
2023-05-17T04:36:02.523Z,1018.30
2023-05-17T04:37:02.533Z,1018.32
2023-05-17T04:38:02.550Z,1018.40
2023-05-17T04:39:02.571Z,1018.40
2023-05-17T04:40:02.613Z,1018.44
2023-05-17T04:41:02.617Z,1018.45
2023-05-17T04:42:02.637Z,1018.48
2023-05-17T04:43:02.661Z,1018.50
2023-05-17T04:44:02.699Z,1018.49
2023-05-17T04:45:02.803Z,1018.51
2023-05-17T04:46:02.740Z,1018.55
2023-05-17T04:47:02.753Z,1018.53
2023-05-17T04:48:02.815Z,1018.57
2023-05-17T04:49:02.879Z,1018.60
2023-05-17T04:50:02.821Z,1018.58
2023-05-17T04:51:02.845Z,1018.61
2023-05-17T04:52:05.333Z,1018.60
2023-05-17T04:53:02.895Z,1018.59
2023-05-17T04:54:02.915Z,1018.62
2023-05-17T04:55:02.935Z,1018.65
2023-05-17T04:56:02.969Z,1018.68
2023-05-17T04:57:02.997Z,1018.68
2023-05-17T04:58:03.008Z,1018.64
2023-05-17T04:59:03.024Z,1018.67
2023-05-17T05:00:03.059Z,1018.68
2023-05-17T05:01:03.075Z,1018.70
2023-05-17T05:02:03.094Z,1018.73
2023-05-17T05:03:03.230Z,1018.71
2023-05-17T05:04:03.254Z,1018.73
2023-05-17T05:05:03.332Z,1018.72
2023-05-17T05:06:03.196Z,1018.73
2023-05-17T05:07:03.217Z,1018.79
2023-05-17T05:08:03.244Z,1018.82
2023-05-17T05:09:03.256Z,1018.76
2023-05-17T05:10:03.285Z,1018.78
2023-05-17T05:11:03.299Z,1018.78
2023-05-17T05:12:03.319Z,1018.85
2023-05-17T05:13:03.361Z,1018.84
2023-05-17T05:14:03.366Z,1018.85
2023-05-17T05:15:03.384Z,1018.90
2023-05-17T05:16:03.414Z,1018.90
2023-05-17T05:17:03.589Z,1018.88
2023-05-17T05:18:03.579Z,1018.92
2023-05-17T05:19:03.734Z,1018.93
2023-05-17T05:20:03.520Z,1018.95
2023-05-17T05:21:03.522Z,1018.96
2023-05-17T05:22:03.552Z,1018.96
2023-05-17T05:23:03.568Z,1019.00
2023-05-17T05:24:03.594Z,1019.04
2023-05-17T05:25:03.618Z,1019.04
2023-05-17T05:26:03.641Z,1019.03
2023-05-17T05:27:05.585Z,1019.07
2023-05-17T05:28:03.686Z,1019.10
2023-05-17T05:29:03.705Z,1019.09
2023-05-17T05:30:03.735Z,1019.11
2023-05-17T05:31:03.753Z,1019.11
2023-05-17T05:32:03.778Z,1019.13
2023-05-17T05:33:03.980Z,1019.14
2023-05-17T05:34:03.858Z,1019.14
2023-05-17T05:35:03.848Z,1019.18
2023-05-17T05:36:03.870Z,1019.17
2023-05-17T05:37:03.889Z,1019.20
2023-05-17T05:38:03.914Z,1019.23
2023-05-17T05:39:03.956Z,1019.23
2023-05-17T05:40:03.973Z,1019.19
2023-05-17T05:41:03.990Z,1019.20
2023-05-17T05:42:04.008Z,1019.23
2023-05-17T05:43:04.030Z,1019.24
2023-05-17T05:44:04.060Z,1019.29
2023-05-17T05:45:04.088Z,1019.31
2023-05-17T05:46:04.102Z,1019.32
2023-05-17T05:47:04.143Z,1019.27
2023-05-17T05:48:04.217Z,1019.33
2023-05-17T05:49:04.466Z,1019.32
2023-05-17T05:50:04.199Z,1019.31
2023-05-17T05:51:04.224Z,1019.31
2023-05-17T05:52:04.255Z,1019.30
2023-05-17T05:53:17.455Z,1019.34
2023-05-17T05:54:04.318Z,1019.38
2023-05-17T05:55:04.345Z,1019.43
2023-05-17T05:56:04.346Z,1019.42
2023-05-17T05:57:04.387Z,1019.39
2023-05-17T05:58:04.522Z,1019.45
2023-05-17T05:59:04.428Z,1019.43
2023-05-17T06:00:04.450Z,1019.47
2023-05-17T06:01:06.126Z,1019.46
2023-05-17T06:02:04.503Z,1019.50
2023-05-17T06:03:04.591Z,1019.49
2023-05-17T06:04:04.553Z,1019.55
2023-05-17T06:05:04.660Z,1019.56
2023-05-17T06:06:04.703Z,1019.63
2023-05-17T06:07:04.711Z,1019.60
2023-05-17T06:08:04.656Z,1019.64
2023-05-17T06:09:04.681Z,1019.60
2023-05-17T06:10:04.718Z,1019.59
2023-05-17T06:11:04.740Z,1019.61
2023-05-17T06:12:04.765Z,1019.60
2023-05-17T06:13:04.800Z,1019.54
2023-05-17T06:14:04.820Z,1019.61
2023-05-17T06:15:04.854Z,1019.65
2023-05-17T06:16:04.873Z,1019.68
2023-05-17T06:17:04.900Z,1019.65
2023-05-17T06:18:05.071Z,1019.69
2023-05-17T06:19:04.997Z,1019.69
2023-05-17T06:20:05.127Z,1019.70
2023-05-17T06:21:05.100Z,1019.70
2023-05-17T06:22:05.039Z,1019.75
2023-05-17T06:23:05.108Z,1019.73
2023-05-17T06:24:05.298Z,1019.72
2023-05-17T06:25:05.125Z,1019.72
2023-05-17T06:26:05.149Z,1019.69
2023-05-17T06:27:05.183Z,1019.69
2023-05-17T06:28:05.205Z,1019.73
2023-05-17T06:29:05.229Z,1019.75
2023-05-17T06:30:07.284Z,1019.76
2023-05-17T06:31:05.324Z,1019.78
2023-05-17T06:32:05.321Z,1019.79
2023-05-17T06:33:05.511Z,1019.78
2023-05-17T06:34:05.593Z,1019.83
2023-05-17T06:35:05.402Z,1019.86
2023-05-17T06:36:05.442Z,1019.85
2023-05-17T06:37:05.702Z,1019.90
2023-05-17T06:38:05.492Z,1019.91
2023-05-17T06:39:05.583Z,1019.89
2023-05-17T06:40:14.995Z,1019.90
2023-05-17T06:41:05.570Z,1019.90
2023-05-17T06:42:05.605Z,1019.91
2023-05-17T06:43:05.632Z,1019.92
2023-05-17T06:44:05.666Z,1020.05
2023-05-17T06:45:05.688Z,1019.92
2023-05-17T06:46:05.825Z,1019.90
2023-05-17T06:47:05.750Z,1019.93
2023-05-17T06:48:05.849Z,1019.96
2023-05-17T06:49:05.902Z,1019.98
2023-05-17T06:50:05.843Z,1019.95
2023-05-17T06:51:06.442Z,1019.95
2023-05-17T06:52:05.916Z,1019.85
2023-05-17T06:53:06.064Z,1019.88
2023-05-17T06:54:05.950Z,1019.95
2023-05-17T06:55:05.987Z,1019.99
2023-05-17T06:56:06.012Z,1019.96
2023-05-17T06:57:06.032Z,1020.01
2023-05-17T06:58:06.072Z,1020.03
2023-05-17T06:59:06.095Z,1019.94
2023-05-17T07:00:06.115Z,1019.99
2023-05-17T07:01:06.147Z,1020.01
2023-05-17T07:02:06.170Z,1020.00
2023-05-17T07:03:06.297Z,1020.06
2023-05-17T07:04:06.271Z,1020.03
2023-05-17T07:05:06.285Z,1019.98
2023-05-17T07:06:06.273Z,1020.01
2023-05-17T07:07:06.297Z,1019.98
2023-05-17T07:08:06.347Z,1020.05
2023-05-17T07:09:06.486Z,1020.04
2023-05-17T07:10:06.383Z,1020.05
2023-05-17T07:11:06.400Z,1020.11
2023-05-17T07:12:06.420Z,1020.09
2023-05-17T07:13:06.459Z,1020.10
2023-05-17T07:14:06.478Z,1020.13
2023-05-17T07:15:06.499Z,1020.15
2023-05-17T07:16:06.526Z,1020.21
2023-05-17T07:17:06.552Z,1020.19
2023-05-17T07:18:06.927Z,1020.15
2023-05-17T07:19:06.683Z,1020.16
2023-05-17T07:20:06.837Z,1020.19
2023-05-17T07:21:06.654Z,1020.17
2023-05-17T07:22:06.701Z,1020.15
2023-05-17T07:23:06.704Z,1020.15
2023-05-17T07:24:06.727Z,1020.13
2023-05-17T07:25:06.852Z,1020.17
2023-05-17T07:26:06.776Z,1020.21
2023-05-17T07:27:06.801Z,1020.23
2023-05-17T07:28:06.828Z,1020.24
2023-05-17T07:29:06.859Z,1020.21
2023-05-17T07:30:06.878Z,1020.16
2023-05-17T07:31:06.899Z,1020.26
2023-05-17T07:32:06.928Z,1020.27
2023-05-17T07:33:06.970Z,1020.34
2023-05-17T07:34:07.022Z,1020.32
2023-05-17T07:35:07.002Z,1020.34
2023-05-17T07:36:07.048Z,1020.34
2023-05-17T07:37:07.054Z,1020.35
2023-05-17T07:38:07.069Z,1020.39
2023-05-17T07:39:07.111Z,1020.35
2023-05-17T07:40:07.134Z,1020.34
2023-05-17T07:41:07.422Z,1020.37
2023-05-17T07:42:07.177Z,1020.39
2023-05-17T07:43:07.204Z,1020.42
2023-05-17T07:44:07.225Z,1020.39
2023-05-17T07:45:07.250Z,1020.40
2023-05-17T07:46:07.269Z,1020.43
2023-05-17T07:47:07.374Z,1020.41
2023-05-17T07:48:07.426Z,1020.44
2023-05-17T07:49:07.499Z,1020.41
2023-05-17T07:50:07.378Z,1020.56
2023-05-17T07:51:07.393Z,1020.50
2023-05-17T07:52:07.445Z,1020.55
2023-05-17T07:53:07.445Z,1020.62
2023-05-17T07:54:07.468Z,1020.65
2023-05-17T07:55:07.499Z,1020.52
2023-05-17T07:56:07.530Z,1020.51
2023-05-17T07:57:07.649Z,1020.53
2023-05-17T07:58:07.566Z,1020.53
2023-05-17T07:59:07.591Z,1020.54
2023-05-17T08:00:07.670Z,1020.49
2023-05-17T08:01:07.659Z,1020.54
2023-05-17T08:02:07.663Z,1020.58
2023-05-17T08:03:07.783Z,1020.57
2023-05-17T08:04:07.722Z,1020.57
2023-05-17T08:05:07.736Z,1020.65
2023-05-17T08:06:07.775Z,1020.63
2023-05-17T08:07:07.795Z,1020.61
2023-05-17T08:08:07.810Z,1020.59
2023-05-17T08:09:07.836Z,1020.63
2023-05-17T08:10:07.857Z,1020.59
2023-05-17T08:11:07.892Z,1020.64
2023-05-17T08:12:07.922Z,1020.62
2023-05-17T08:13:07.936Z,1020.63
2023-05-17T08:14:07.965Z,1020.59
2023-05-17T08:15:07.982Z,1020.62
2023-05-17T08:16:13.530Z,1020.70
2023-05-17T08:17:08.044Z,1020.72
2023-05-17T08:18:08.161Z,1020.78
2023-05-17T08:19:08.167Z,1020.82
2023-05-17T08:20:08.257Z,1020.76
2023-05-17T08:21:08.138Z,1020.81
2023-05-17T08:22:08.156Z,1020.86
2023-05-17T08:23:08.180Z,1020.82
2023-05-17T08:24:08.202Z,1020.91
2023-05-17T08:25:08.231Z,1020.91
2023-05-17T08:26:08.278Z,1020.89
2023-05-17T08:27:08.279Z,1020.91
2023-05-17T08:28:08.301Z,1020.94
2023-05-17T08:29:08.413Z,1020.89
2023-05-17T08:30:11.637Z,1020.88
2023-05-17T08:31:08.382Z,1020.90
2023-05-17T08:32:08.408Z,1020.90
2023-05-17T08:33:08.455Z,1020.96
2023-05-17T08:34:08.497Z,1020.93
2023-05-17T08:35:08.483Z,1020.95
2023-05-17T08:36:08.509Z,1020.96
2023-05-17T08:37:08.579Z,1021.02
2023-05-17T08:38:08.554Z,1020.95
2023-05-17T08:39:08.606Z,1020.92
2023-05-17T08:40:08.639Z,1020.91
2023-05-17T08:41:08.624Z,1020.84
2023-05-17T08:42:08.648Z,1020.92
2023-05-17T08:43:08.682Z,1020.95
2023-05-17T08:44:08.702Z,1020.97
2023-05-17T08:45:08.731Z,1020.92
2023-05-17T08:46:08.748Z,1020.95
2023-05-17T08:47:08.786Z,1020.89
2023-05-17T08:48:08.831Z,1020.88
2023-05-17T08:49:08.846Z,1020.98
2023-05-17T08:50:08.849Z,1020.96
2023-05-17T08:51:08.876Z,1021.00
2023-05-17T08:52:08.896Z,1021.02
2023-05-17T08:53:08.994Z,1021.01
2023-05-17T08:54:08.952Z,1021.04
2023-05-17T08:55:08.979Z,1021.01
2023-05-17T08:56:09.001Z,1021.07
2023-05-17T08:57:09.028Z,1021.00
2023-05-17T08:58:09.048Z,1021.02
2023-05-17T08:59:09.079Z,1020.99
2023-05-17T09:00:09.107Z,1020.98
2023-05-17T09:01:09.157Z,1021.00
2023-05-17T09:02:09.276Z,1020.99
2023-05-17T09:03:09.236Z,1021.01
2023-05-17T09:04:09.214Z,1021.04
2023-05-17T09:05:09.278Z,1021.08
2023-05-17T09:06:09.259Z,1021.05
2023-05-17T09:07:09.276Z,1021.03
2023-05-17T09:08:09.307Z,1021.03
2023-05-17T09:09:09.325Z,1020.98
2023-05-17T09:10:09.346Z,1020.97
2023-05-17T09:11:09.374Z,1020.95
2023-05-17T09:12:09.396Z,1020.99
2023-05-17T09:13:09.425Z,1021.01
2023-05-17T09:14:09.452Z,1021.00
2023-05-17T09:15:09.480Z,1021.01
2023-05-17T09:16:09.500Z,1020.98
2023-05-17T09:17:09.556Z,1020.99
2023-05-17T09:18:09.580Z,1021.01
2023-05-17T09:19:09.634Z,1021.00
2023-05-17T09:20:09.638Z,1021.02
2023-05-17T09:21:09.653Z,1021.04
2023-05-17T09:22:09.656Z,1021.04
2023-05-17T09:23:09.721Z,1021.03
2023-05-17T09:24:09.708Z,1021.02
2023-05-17T09:25:09.732Z,1021.03
2023-05-17T09:26:09.756Z,1021.00
2023-05-17T09:27:09.789Z,1021.02
2023-05-17T09:28:09.809Z,1020.98
2023-05-17T09:29:09.838Z,1021.04
2023-05-17T09:30:09.863Z,1021.04
2023-05-17T09:31:09.889Z,1021.03
2023-05-17T09:32:09.919Z,1020.95
2023-05-17T09:33:09.944Z,1020.95
2023-05-17T09:34:17.136Z,1020.97
2023-05-17T09:36:14.488Z,1020.92
2023-05-17T09:37:14.014Z,1020.94
2023-05-17T09:39:18.086Z,1020.95
2023-05-17T09:40:18.064Z,1020.91
2023-05-17T09:42:22.574Z,1020.98
2023-05-17T09:43:22.094Z,1021.05
2023-05-17T09:45:15.254Z,1021.04
2023-05-17T09:46:15.247Z,1020.99
2023-05-17T09:48:08.800Z,1020.93
2023-05-17T09:49:08.225Z,1020.93
2023-05-17T09:51:12.290Z,1020.90
2023-05-17T09:52:12.260Z,1020.90
2023-05-17T09:54:16.770Z,1020.91
2023-05-17T09:55:16.289Z,1020.83
2023-05-17T09:57:20.356Z,1021.03
2023-05-17T09:58:20.325Z,1020.93
2023-05-17T10:00:24.859Z,1020.91
2023-05-17T10:01:24.380Z,1020.89
2023-05-17T10:03:28.462Z,1020.84
2023-05-17T10:04:28.416Z,1020.81
2023-05-17T10:06:45.181Z,1020.83
2023-05-17T10:07:32.448Z,1020.87
2023-05-17T10:09:36.512Z,1020.89
2023-05-17T10:10:36.479Z,1020.86
2023-05-17T10:12:41.001Z,1020.89
2023-05-17T10:13:40.517Z,1020.89
2023-05-17T10:15:44.564Z,1020.85
2023-05-17T10:16:44.554Z,1020.81
2023-05-17T10:18:38.403Z,1020.90
2023-05-17T10:19:37.797Z,1020.87
2023-05-17T10:21:41.551Z,1020.83
2023-05-17T10:22:41.562Z,1020.80
2023-05-17T10:24:46.068Z,1020.83
2023-05-17T10:25:45.578Z,1020.95
2023-05-17T10:27:38.552Z,1020.80
2023-05-17T10:28:38.543Z,1020.83
2023-05-17T10:30:43.061Z,1020.82
2023-05-17T10:31:42.580Z,1020.76
2023-05-17T10:33:46.733Z,1020.75
2023-05-17T10:34:54.503Z,1020.77
2023-05-17T10:36:51.126Z,1020.78
2023-05-17T10:37:50.645Z,1020.81
2023-05-17T10:39:54.713Z,1020.81
2023-05-17T10:40:54.686Z,1020.82
2023-05-17T10:42:59.272Z,1020.85
2023-05-17T10:43:58.730Z,1020.86
2023-05-17T10:46:02.826Z,1020.82
2023-05-17T10:47:02.773Z,1020.77
2023-05-17T10:49:07.406Z,1020.79
2023-05-17T10:50:06.854Z,1020.78
2023-05-17T10:52:10.841Z,1020.78
2023-05-17T10:53:10.841Z,1020.79
2023-05-17T10:55:15.359Z,1020.76
2023-05-17T10:56:14.868Z,1020.83
2023-05-17T10:58:07.858Z,1020.80
2023-05-17T10:59:07.836Z,1020.82
2023-05-17T11:01:12.347Z,1020.81
2023-05-17T11:02:11.868Z,1020.81
2023-05-17T11:04:15.958Z,1020.76
2023-05-17T11:05:16.074Z,1020.71
2023-05-17T11:07:20.921Z,1020.75
2023-05-17T11:08:19.940Z,1020.75
2023-05-17T11:10:23.991Z,1020.74
2023-05-17T11:11:23.977Z,1020.87
2023-05-17T11:13:28.532Z,1020.82
2023-05-17T11:14:29.176Z,1020.76
2023-05-17T11:16:32.074Z,1020.91
2023-05-17T11:17:32.102Z,1020.73
2023-05-17T11:19:36.614Z,1020.65
2023-05-17T11:20:36.647Z,1020.64
2023-05-17T11:22:29.266Z,1020.71
2023-05-17T11:23:29.258Z,1020.66
2023-05-17T11:25:33.797Z,1020.66
2023-05-17T11:26:33.311Z,1020.72
2023-05-17T11:28:26.275Z,1020.70
2023-05-17T11:29:26.263Z,1020.77
2023-05-17T11:31:30.793Z,1020.75
2023-05-17T11:32:30.333Z,1020.81
2023-05-17T11:34:34.472Z,1020.75
2023-05-17T11:35:34.333Z,1020.76
2023-05-17T11:37:38.888Z,1020.79
2023-05-17T11:38:38.372Z,1020.77
2023-05-17T11:40:42.453Z,1020.84
2023-05-17T11:41:42.403Z,1020.78
2023-05-17T11:43:46.941Z,1020.81
2023-05-17T11:44:46.429Z,1020.91
2023-05-17T11:46:50.534Z,1020.86
2023-05-17T11:47:50.547Z,1020.82
2023-05-17T11:49:56.494Z,1020.79
2023-05-17T11:50:54.554Z,1020.88
2023-05-17T11:52:58.587Z,1020.81
2023-05-17T11:53:58.546Z,1020.78
2023-05-17T11:56:03.082Z,1020.79
2023-05-17T11:57:02.583Z,1020.76
2023-05-17T11:59:06.630Z,1020.73
2023-05-17T12:00:06.617Z,1020.75
2023-05-17T12:02:11.631Z,1020.73
2023-05-17T12:03:10.681Z,1020.75
2023-05-17T12:05:14.690Z,1020.77
2023-05-17T12:06:14.721Z,1020.80
2023-05-17T12:08:08.230Z,1020.80
2023-05-17T12:09:07.638Z,1020.82
2023-05-17T12:11:11.675Z,1020.83
2023-05-17T12:12:11.669Z,1020.81
2023-05-17T12:15:20.183Z,1020.75
2023-05-17T12:16:19.700Z,1020.75
2023-05-17T12:18:12.726Z,1020.71
2023-05-17T12:19:12.807Z,1020.76
2023-05-17T12:21:17.188Z,1020.65
2023-05-17T12:22:16.682Z,1020.64
2023-05-17T12:24:20.862Z,1020.71
2023-05-17T12:25:20.715Z,1020.71
2023-05-17T12:27:25.234Z,1020.75
2023-05-17T12:28:24.759Z,1020.75
2023-05-17T12:30:29.525Z,1020.74
2023-05-17T12:31:28.775Z,1020.78
2023-05-17T12:33:33.346Z,1020.76
2023-05-17T12:34:32.834Z,1020.75
2023-05-17T12:36:36.860Z,1020.70
2023-05-17T12:37:36.854Z,1020.78
2023-05-17T12:39:41.380Z,1020.76
2023-05-17T12:40:43.247Z,1020.73
2023-05-17T12:42:44.943Z,1020.76
2023-05-17T12:43:44.977Z,1020.79
2023-05-17T12:45:49.443Z,1020.72
2023-05-17T12:46:48.962Z,1020.79
2023-05-17T12:48:53.153Z,1020.74
2023-05-17T12:49:52.985Z,1020.73
2023-05-17T12:51:57.572Z,1020.83
2023-05-17T12:52:57.020Z,1020.77
2023-05-17T12:55:01.059Z,1020.81
2023-05-17T12:56:01.051Z,1020.84
2023-05-17T12:57:55.554Z,1020.80
2023-05-17T12:58:54.007Z,1020.87
2023-05-17T13:00:58.096Z,1020.86
2023-05-17T13:01:58.121Z,1020.84
2023-05-17T13:04:03.177Z,1020.81
2023-05-17T13:05:02.177Z,1020.80
2023-05-17T13:06:55.251Z,1020.88
2023-05-17T13:07:55.230Z,1020.86
2023-05-17T13:09:59.751Z,1021.00
2023-05-17T13:10:59.320Z,1020.89
2023-05-17T13:13:03.303Z,1020.95
2023-05-17T13:14:03.296Z,1020.90
2023-05-17T13:16:07.823Z,1020.95
2023-05-17T13:17:07.333Z,1020.90
2023-05-17T13:19:11.419Z,1020.89
2023-05-17T13:20:11.466Z,1020.93
2023-05-17T13:22:16.893Z,1020.94
2023-05-17T13:23:16.414Z,1020.80
2023-05-17T13:25:20.469Z,1020.86
2023-05-17T13:26:20.445Z,1020.84